sensor_id;sensor_type;location;lat;lon;timestamp;temperature;humidity
19033;DHT22;9649;51.042;13.804;2024-01-30T00:01:12;4.60;1.00
19033;DHT22;9649;51.042;13.804;2024-01-30T00:06:17;4.60;1.00
19033;DHT22;9649;51.042;13.804;2024-01-30T00:11:22;4.60;1.00
19033;DHT22;9649;51.042;13.804;2024-01-30T00:16:28;4.60;1.00
19033;DHT22;9649;51.042;13.804;2024-01-30T00:21:30;4.50;1.00
19033;DHT22;9649;51.042;13.804;2024-01-30T00:26:34;4.40;99.90
19033;DHT22;9649;51.042;13.804;2024-01-30T00:31:37;4.50;1.00
19033;DHT22;9649;51.042;13.804;2024-01-30T00:36:43;4.50;1.00
19033;DHT22;9649;51.042;13.804;2024-01-30T00:41:47;4.40;99.90
19033;DHT22;9649;51.042;13.804;2024-01-30T00:46:49;4.30;99.90
19033;DHT22;9649;51.042;13.804;2024-01-30T00:51:52;4.30;99.90
19033;DHT22;9649;51.042;13.804;2024-01-30T00:56:56;4.40;1.00
19033;DHT22;9649;51.042;13.804;2024-01-30T01:01:59;4.40;1.00
19033;DHT22;9649;51.042;13.804;2024-01-30T01:07:02;4.30;1.00
19033;DHT22;9649;51.042;13.804;2024-01-30T01:12:07;4.30;1.00
19033;DHT22;9649;51.042;13.804;2024-01-30T01:17:09;4.30;1.00
19033;DHT22;9649;51.042;13.804;2024-01-30T01:22:12;4.30;1.00
19033;DHT22;9649;51.042;13.804;2024-01-30T01:27:16;4.30;1.00
19033;DHT22;9649;51.042;13.804;2024-01-30T01:32:19;4.30;1.00
19033;DHT22;9649;51.042;13.804;2024-01-30T01:37:23;4.10;1.00
19033;DHT22;9649;51.042;13.804;2024-01-30T01:42:29;4.20;1.00
19033;DHT22;9649;51.042;13.804;2024-01-30T01:47:32;4.20;1.00
19033;DHT22;9649;51.042;13.804;2024-01-30T01:52:36;4.10;99.90
19033;DHT22;9649;51.042;13.804;2024-01-30T01:57:41;4.10;99.90
19033;DHT22;9649;51.042;13.804;2024-01-30T02:02:45;4.10;99.90
19033;DHT22;9649;51.042;13.804;2024-01-30T02:07:49;4.10;1.00
19033;DHT22;9649;51.042;13.804;2024-01-30T02:12:54;4.00;1.00
19033;DHT22;9649;51.042;13.804;2024-01-30T02:17:57;4.00;1.00
19033;DHT22;9649;51.042;13.804;2024-01-30T02:23:01;3.90;1.00
19033;DHT22;9649;51.042;13.804;2024-01-30T02:28:04;3.90;1.00
19033;DHT22;9649;51.042;13.804;2024-01-30T02:33:07;3.90;1.00
19033;DHT22;9649;51.042;13.804;2024-01-30T02:38:11;3.80;51.10
19033;DHT22;9649;51.042;13.804;2024-01-30T02:43:15;3.80;92.00
19033;DHT22;9649;51.042;13.804;2024-01-30T02:48:18;3.80;31.10
19033;DHT22;9649;51.042;13.804;2024-01-30T02:53:22;3.80;99.90
19033;DHT22;9649;51.042;13.804;2024-01-30T02:58:25;3.70;99.90
19033;DHT22;9649;51.042;13.804;2024-01-30T03:03:27;3.60;1.00
19033;DHT22;9649;51.042;13.804;2024-01-30T03:08:31;3.60;99.90
19033;DHT22;9649;51.042;13.804;2024-01-30T03:13:36;3.60;99.90
19033;DHT22;9649;51.042;13.804;2024-01-30T03:18:39;3.50;1.00
19033;DHT22;9649;51.042;13.804;2024-01-30T03:23:43;3.50;1.00
19033;DHT22;9649;51.042;13.804;2024-01-30T03:28:45;3.50;1.00
19033;DHT22;9649;51.042;13.804;2024-01-30T03:33:48;3.50;1.00
19033;DHT22;9649;51.042;13.804;2024-01-30T03:38:52;3.40;1.00
19033;DHT22;9649;51.042;13.804;2024-01-30T03:43:55;3.40;1.00
19033;DHT22;9649;51.042;13.804;2024-01-30T03:48:58;3.40;1.00
19033;DHT22;9649;51.042;13.804;2024-01-30T03:54:02;3.50;1.00
19033;DHT22;9649;51.042;13.804;2024-01-30T03:59:05;3.50;1.00
19033;DHT22;9649;51.042;13.804;2024-01-30T04:04:08;3.50;99.90
19033;DHT22;9649;51.042;13.804;2024-01-30T04:09:20;3.50;99.90
19033;DHT22;9649;51.042;13.804;2024-01-30T04:14:41;3.50;1.00
19033;DHT22;9649;51.042;13.804;2024-01-30T04:20:32;3.60;99.90
19033;DHT22;9649;51.042;13.804;2024-01-30T04:25:58;3.60;99.90
19033;DHT22;9649;51.042;13.804;2024-01-30T04:31:20;3.60;99.90
19033;DHT22;9649;51.042;13.804;2024-01-30T04:36:55;3.50;99.90
19033;DHT22;9649;51.042;13.804;2024-01-30T04:42:48;3.50;1.00
19033;DHT22;9649;51.042;13.804;2024-01-30T04:48:12;3.60;99.90
19033;DHT22;9649;51.042;13.804;2024-01-30T04:53:42;3.50;1.00
19033;DHT22;9649;51.042;13.804;2024-01-30T04:59:13;3.50;1.00
19033;DHT22;9649;51.042;13.804;2024-01-30T05:04:29;3.50;1.00
19033;DHT22;9649;51.042;13.804;2024-01-30T05:09:45;3.40;99.90
19033;DHT22;9649;51.042;13.804;2024-01-30T05:15:21;3.40;1.00
19033;DHT22;9649;51.042;13.804;2024-01-30T05:21:06;3.40;1.00
19033;DHT22;9649;51.042;13.804;2024-01-30T05:26:33;3.40;99.90
19033;DHT22;9649;51.042;13.804;2024-01-30T05:32:16;3.40;1.00
19033;DHT22;9649;51.042;13.804;2024-01-30T05:37:54;3.50;1.00
19033;DHT22;9649;51.042;13.804;2024-01-30T05:43:19;3.40;1.00
19033;DHT22;9649;51.042;13.804;2024-01-30T05:48:42;3.40;1.00
19033;DHT22;9649;51.042;13.804;2024-01-30T06:00:26;3.40;1.00
19033;DHT22;9649;51.042;13.804;2024-01-30T06:06:06;3.40;1.00
19033;DHT22;9649;51.042;13.804;2024-01-30T06:11:56;3.30;1.00
19033;DHT22;9649;51.042;13.804;2024-01-30T06:17:41;3.30;1.00
19033;DHT22;9649;51.042;13.804;2024-01-30T06:23:17;3.20;1.00
19033;DHT22;9649;51.042;13.804;2024-01-30T06:28:42;3.20;1.00
19033;DHT22;9649;51.042;13.804;2024-01-30T06:34:07;3.20;99.90
19033;DHT22;9649;51.042;13.804;2024-01-30T06:39:16;3.20;99.90
19033;DHT22;9649;51.042;13.804;2024-01-30T06:44:19;3.20;92.20
19033;DHT22;9649;51.042;13.804;2024-01-30T06:49:21;3.20;1.00
19033;DHT22;9649;51.042;13.804;2024-01-30T06:54:25;3.20;1.00
19033;DHT22;9649;51.042;13.804;2024-01-30T06:59:28;3.30;1.00
19033;DHT22;9649;51.042;13.804;2024-01-30T07:04:31;3.20;1.00
19033;DHT22;9649;51.042;13.804;2024-01-30T07:09:35;3.30;99.90
19033;DHT22;9649;51.042;13.804;2024-01-30T07:14:38;3.40;99.90
19033;DHT22;9649;51.042;13.804;2024-01-30T07:19:40;3.50;1.00
19033;DHT22;9649;51.042;13.804;2024-01-30T07:24:45;3.90;1.00
19033;DHT22;9649;51.042;13.804;2024-01-30T07:29:50;3.90;1.00
19033;DHT22;9649;51.042;13.804;2024-01-30T07:34:52;4.00;99.90
19033;DHT22;9649;51.042;13.804;2024-01-30T07:40:10;4.70;1.00
19033;DHT22;9649;51.042;13.804;2024-01-30T07:45:13;5.60;1.00
19033;DHT22;9649;51.042;13.804;2024-01-30T07:50:16;6.50;1.00
19033;DHT22;9649;51.042;13.804;2024-01-30T07:55:21;6.40;1.00
19033;DHT22;9649;51.042;13.804;2024-01-30T08:00:26;6.80;1.00
19033;DHT22;9649;51.042;13.804;2024-01-30T08:05:30;7.90;1.00
19033;DHT22;9649;51.042;13.804;2024-01-30T08:10:35;8.50;1.00
19033;DHT22;9649;51.042;13.804;2024-01-30T08:15:38;8.50;1.00
19033;DHT22;9649;51.042;13.804;2024-01-30T08:20:41;9.30;1.00
19033;DHT22;9649;51.042;13.804;2024-01-30T08:25:45;9.50;1.00
19033;DHT22;9649;51.042;13.804;2024-01-30T08:30:48;9.60;1.00
19033;DHT22;9649;51.042;13.804;2024-01-30T08:35:50;9.30;1.00
19033;DHT22;9649;51.042;13.804;2024-01-30T08:40:56;8.20;1.00
19033;DHT22;9649;51.042;13.804;2024-01-30T08:45:59;8.00;1.00
19033;DHT22;9649;51.042;13.804;2024-01-30T08:51:02;9.50;1.00
19033;DHT22;9649;51.042;13.804;2024-01-30T08:56:06;10.50;1.00
19033;DHT22;9649;51.042;13.804;2024-01-30T09:01:09;11.30;1.00
19033;DHT22;9649;51.042;13.804;2024-01-30T09:06:13;12.00;1.00
19033;DHT22;9649;51.042;13.804;2024-01-30T09:11:17;12.20;1.00
19033;DHT22;9649;51.042;13.804;2024-01-30T09:16:19;12.20;1.00
19033;DHT22;9649;51.042;13.804;2024-01-30T09:21:22;12.40;99.90
19033;DHT22;9649;51.042;13.804;2024-01-30T09:26:37;11.70;1.00
19033;DHT22;9649;51.042;13.804;2024-01-30T09:32:18;11.30;99.90
19033;DHT22;9649;51.042;13.804;2024-01-30T09:37:41;10.70;1.00
19033;DHT22;9649;51.042;13.804;2024-01-30T09:43:30;10.80;1.00
19033;DHT22;9649;51.042;13.804;2024-01-30T09:49:00;11.00;1.00
19033;DHT22;9649;51.042;13.804;2024-01-30T09:54:46;12.20;1.00
19033;DHT22;9649;51.042;13.804;2024-01-30T10:00:49;13.60;99.90
19033;DHT22;9649;51.042;13.804;2024-01-30T10:05:52;13.80;99.90
19033;DHT22;9649;51.042;13.804;2024-01-30T10:11:01;13.60;99.90
19033;DHT22;9649;51.042;13.804;2024-01-30T10:16:15;13.40;99.90
19033;DHT22;9649;51.042;13.804;2024-01-30T10:21:24;13.60;99.90
19033;DHT22;9649;51.042;13.804;2024-01-30T10:26:30;13.10;99.90
19033;DHT22;9649;51.042;13.804;2024-01-30T10:31:42;14.80;99.90
19033;DHT22;9649;51.042;13.804;2024-01-30T10:36:59;14.00;99.90
19033;DHT22;9649;51.042;13.804;2024-01-30T10:42:12;14.60;99.90
19033;DHT22;9649;51.042;13.804;2024-01-30T10:47:20;14.40;99.90
19033;DHT22;9649;51.042;13.804;2024-01-30T10:52:34;14.70;99.90
19033;DHT22;9649;51.042;13.804;2024-01-30T10:57:46;14.60;99.90
19033;DHT22;9649;51.042;13.804;2024-01-30T11:03:07;13.80;99.90
19033;DHT22;9649;51.042;13.804;2024-01-30T11:08:27;12.50;99.90
19033;DHT22;9649;51.042;13.804;2024-01-30T11:13:31;13.10;99.90
19033;DHT22;9649;51.042;13.804;2024-01-30T11:18:38;12.80;99.90
19033;DHT22;9649;51.042;13.804;2024-01-30T11:23:46;12.60;99.90
19033;DHT22;9649;51.042;13.804;2024-01-30T11:28:52;11.00;99.90
19033;DHT22;9649;51.042;13.804;2024-01-30T11:33:59;10.50;1.00
19033;DHT22;9649;51.042;13.804;2024-01-30T11:39:07;11.60;99.90
19033;DHT22;9649;51.042;13.804;2024-01-30T11:44:19;11.30;99.90
19033;DHT22;9649;51.042;13.804;2024-01-30T11:49:25;10.50;1.00
19033;DHT22;9649;51.042;13.804;2024-01-30T11:54:51;11.20;1.00
19033;DHT22;9649;51.042;13.804;2024-01-30T12:00:26;11.00;1.00
19033;DHT22;9649;51.042;13.804;2024-01-30T12:05:36;10.30;1.00
19033;DHT22;9649;51.042;13.804;2024-01-30T12:10:55;10.00;1.00
19033;DHT22;9649;51.042;13.804;2024-01-30T12:16:16;9.20;1.00
19033;DHT22;9649;51.042;13.804;2024-01-30T12:21:47;9.10;1.00
19033;DHT22;9649;51.042;13.804;2024-01-30T12:26:50;9.00;1.00
19033;DHT22;9649;51.042;13.804;2024-01-30T12:32:01;8.70;1.00
19033;DHT22;9649;51.042;13.804;2024-01-30T12:37:09;8.60;1.00
19033;DHT22;9649;51.042;13.804;2024-01-30T12:42:16;8.10;1.00
19033;DHT22;9649;51.042;13.804;2024-01-30T12:47:33;7.90;1.00
19033;DHT22;9649;51.042;13.804;2024-01-30T12:52:49;8.10;1.00
19033;DHT22;9649;51.042;13.804;2024-01-30T12:57:57;8.50;1.00
19033;DHT22;9649;51.042;13.804;2024-01-30T13:03:08;8.10;1.00
19033;DHT22;9649;51.042;13.804;2024-01-30T13:08:38;8.10;1.00
19033;DHT22;9649;51.042;13.804;2024-01-30T13:13:50;7.70;1.00
19033;DHT22;9649;51.042;13.804;2024-01-30T13:19:15;7.60;1.00
19033;DHT22;9649;51.042;13.804;2024-01-30T13:24:34;7.90;1.00
19033;DHT22;9649;51.042;13.804;2024-01-30T13:36:13;9.40;1.00
19033;DHT22;9649;51.042;13.804;2024-01-30T13:41:38;9.30;1.00
19033;DHT22;9649;51.042;13.804;2024-01-30T13:46:59;10.00;1.00
19033;DHT22;9649;51.042;13.804;2024-01-30T13:52:59;9.70;1.00
19033;DHT22;9649;51.042;13.804;2024-01-30T13:58:39;9.30;1.00
19033;DHT22;9649;51.042;13.804;2024-01-30T14:03:56;8.40;1.00
19033;DHT22;9649;51.042;13.804;2024-01-30T14:09:07;7.60;1.00
19033;DHT22;9649;51.042;13.804;2024-01-30T14:14:38;7.30;1.00
19033;DHT22;9649;51.042;13.804;2024-01-30T14:19:50;7.30;1.00
19033;DHT22;9649;51.042;13.804;2024-01-30T14:24:53;6.80;99.90
19033;DHT22;9649;51.042;13.804;2024-01-30T14:30:12;6.60;99.90
19033;DHT22;9649;51.042;13.804;2024-01-30T14:35:15;6.50;99.90
19033;DHT22;9649;51.042;13.804;2024-01-30T14:40:21;6.50;1.00
19033;DHT22;9649;51.042;13.804;2024-01-30T14:45:35;6.40;1.00
19033;DHT22;9649;51.042;13.804;2024-01-30T14:50:41;6.20;1.00
19033;DHT22;9649;51.042;13.804;2024-01-30T14:55:52;6.00;1.00
19033;DHT22;9649;51.042;13.804;2024-01-30T15:01:03;5.80;1.00
19033;DHT22;9649;51.042;13.804;2024-01-30T15:06:11;5.50;1.00
19033;DHT22;9649;51.042;13.804;2024-01-30T15:11:17;5.30;99.90
19033;DHT22;9649;51.042;13.804;2024-01-30T15:16:30;5.20;99.90
19033;DHT22;9649;51.042;13.804;2024-01-30T15:21:33;5.00;1.00
19033;DHT22;9649;51.042;13.804;2024-01-30T15:26:39;4.80;1.00
19033;DHT22;9649;51.042;13.804;2024-01-30T15:31:43;4.60;99.90
19033;DHT22;9649;51.042;13.804;2024-01-30T15:36:45;4.40;1.00
19033;DHT22;9649;51.042;13.804;2024-01-30T15:41:48;4.30;1.00
19033;DHT22;9649;51.042;13.804;2024-01-30T15:46:52;4.20;99.90
19033;DHT22;9649;51.042;13.804;2024-01-30T15:51:55;4.10;99.90
19033;DHT22;9649;51.042;13.804;2024-01-30T15:56:58;4.10;1.00
19033;DHT22;9649;51.042;13.804;2024-01-30T16:02:03;4.00;44.30
19033;DHT22;9649;51.042;13.804;2024-01-30T16:07:09;3.90;99.90
19033;DHT22;9649;51.042;13.804;2024-01-30T16:12:18;3.90;1.00
19033;DHT22;9649;51.042;13.804;2024-01-30T16:17:22;3.80;1.00
19033;DHT22;9649;51.042;13.804;2024-01-30T16:22:31;3.90;1.00
19033;DHT22;9649;51.042;13.804;2024-01-30T16:27:43;4.00;1.00
19033;DHT22;9649;51.042;13.804;2024-01-30T16:32:49;3.90;1.00
19033;DHT22;9649;51.042;13.804;2024-01-30T16:37:53;3.90;1.00
19033;DHT22;9649;51.042;13.804;2024-01-30T16:42:55;3.90;1.00
19033;DHT22;9649;51.042;13.804;2024-01-30T16:48:00;3.90;99.90
19033;DHT22;9649;51.042;13.804;2024-01-30T16:53:02;3.90;1.00
19033;DHT22;9649;51.042;13.804;2024-01-30T16:58:05;3.90;1.00
19033;DHT22;9649;51.042;13.804;2024-01-30T17:03:11;3.90;1.00
19033;DHT22;9649;51.042;13.804;2024-01-30T17:08:14;3.80;1.00
19033;DHT22;9649;51.042;13.804;2024-01-30T17:13:17;3.80;99.90
19033;DHT22;9649;51.042;13.804;2024-01-30T17:18:21;3.70;1.00
19033;DHT22;9649;51.042;13.804;2024-01-30T17:23:24;3.70;1.00
19033;DHT22;9649;51.042;13.804;2024-01-30T17:28:28;3.60;99.90
19033;DHT22;9649;51.042;13.804;2024-01-30T17:33:33;3.60;1.00
19033;DHT22;9649;51.042;13.804;2024-01-30T17:38:36;3.60;1.00
19033;DHT22;9649;51.042;13.804;2024-01-30T17:43:39;3.50;1.00
19033;DHT22;9649;51.042;13.804;2024-01-30T17:48:43;3.60;87.90
19033;DHT22;9649;51.042;13.804;2024-01-30T17:53:48;3.60;8.00
19033;DHT22;9649;51.042;13.804;2024-01-30T17:58:52;3.50;99.90
19033;DHT22;9649;51.042;13.804;2024-01-30T18:03:58;3.50;99.90
19033;DHT22;9649;51.042;13.804;2024-01-30T18:09:01;3.60;99.90
19033;DHT22;9649;51.042;13.804;2024-01-30T18:14:04;3.50;99.90
19033;DHT22;9649;51.042;13.804;2024-01-30T18:19:08;3.50;1.00
19033;DHT22;9649;51.042;13.804;2024-01-30T18:24:12;3.50;99.90
19033;DHT22;9649;51.042;13.804;2024-01-30T18:29:14;3.40;99.90
19033;DHT22;9649;51.042;13.804;2024-01-30T18:34:18;3.40;99.90
19033;DHT22;9649;51.042;13.804;2024-01-30T18:39:21;3.40;1.00
19033;DHT22;9649;51.042;13.804;2024-01-30T18:44:25;3.40;1.00
19033;DHT22;9649;51.042;13.804;2024-01-30T18:49:29;3.30;1.00
19033;DHT22;9649;51.042;13.804;2024-01-30T18:54:32;3.30;1.00
19033;DHT22;9649;51.042;13.804;2024-01-30T18:59:35;3.30;1.00
19033;DHT22;9649;51.042;13.804;2024-01-30T19:04:40;3.20;1.00
19033;DHT22;9649;51.042;13.804;2024-01-30T19:09:43;3.20;1.00
19033;DHT22;9649;51.042;13.804;2024-01-30T19:14:45;3.20;54.80
19033;DHT22;9649;51.042;13.804;2024-01-30T19:19:50;3.20;99.90
19033;DHT22;9649;51.042;13.804;2024-01-30T19:24:53;3.10;99.90
19033;DHT22;9649;51.042;13.804;2024-01-30T19:29:56;3.20;99.90
19033;DHT22;9649;51.042;13.804;2024-01-30T19:35:00;3.20;99.90
19033;DHT22;9649;51.042;13.804;2024-01-30T19:40:04;3.20;99.90
19033;DHT22;9649;51.042;13.804;2024-01-30T19:45:09;3.20;99.90
19033;DHT22;9649;51.042;13.804;2024-01-30T19:50:14;3.30;99.90
19033;DHT22;9649;51.042;13.804;2024-01-30T19:55:17;3.20;99.90
19033;DHT22;9649;51.042;13.804;2024-01-30T20:00:20;3.20;99.90
19033;DHT22;9649;51.042;13.804;2024-01-30T20:05:27;3.20;99.90
19033;DHT22;9649;51.042;13.804;2024-01-30T20:10:31;3.20;99.90
19033;DHT22;9649;51.042;13.804;2024-01-30T20:15:33;3.30;99.90
19033;DHT22;9649;51.042;13.804;2024-01-30T20:20:38;3.30;99.90
19033;DHT22;9649;51.042;13.804;2024-01-30T20:25:42;3.40;99.90
19033;DHT22;9649;51.042;13.804;2024-01-30T20:30:45;3.30;99.90
19033;DHT22;9649;51.042;13.804;2024-01-30T20:35:50;3.20;99.90
19033;DHT22;9649;51.042;13.804;2024-01-30T20:40:53;3.20;99.90
19033;DHT22;9649;51.042;13.804;2024-01-30T20:45:55;3.10;1.00
19033;DHT22;9649;51.042;13.804;2024-01-30T20:51:01;3.00;1.00
19033;DHT22;9649;51.042;13.804;2024-01-30T20:56:03;3.00;1.00
19033;DHT22;9649;51.042;13.804;2024-01-30T21:01:06;2.90;1.00
19033;DHT22;9649;51.042;13.804;2024-01-30T21:06:10;2.80;1.00
19033;DHT22;9649;51.042;13.804;2024-01-30T21:11:15;2.80;1.00
19033;DHT22;9649;51.042;13.804;2024-01-30T21:16:19;2.80;1.00
19033;DHT22;9649;51.042;13.804;2024-01-30T21:21:23;2.70;1.00
19033;DHT22;9649;51.042;13.804;2024-01-30T21:26:26;2.70;1.00
19033;DHT22;9649;51.042;13.804;2024-01-30T21:31:29;2.60;1.00
19033;DHT22;9649;51.042;13.804;2024-01-30T21:36:33;2.60;1.00
19033;DHT22;9649;51.042;13.804;2024-01-30T21:41:36;2.60;1.00
19033;DHT22;9649;51.042;13.804;2024-01-30T21:46:39;2.60;1.00
19033;DHT22;9649;51.042;13.804;2024-01-30T21:51:43;2.60;1.00
19033;DHT22;9649;51.042;13.804;2024-01-30T21:56:46;2.50;1.00
19033;DHT22;9649;51.042;13.804;2024-01-30T22:01:49;2.50;1.00
19033;DHT22;9649;51.042;13.804;2024-01-30T22:07:07;2.40;1.00
19033;DHT22;9649;51.042;13.804;2024-01-30T22:13:02;2.40;1.00
19033;DHT22;9649;51.042;13.804;2024-01-30T22:18:54;2.40;1.00
19033;DHT22;9649;51.042;13.804;2024-01-30T22:24:43;2.30;1.00
19033;DHT22;9649;51.042;13.804;2024-01-30T22:41:25;2.20;1.00
19033;DHT22;9649;51.042;13.804;2024-01-30T22:47:18;2.20;1.00
19033;DHT22;9649;51.042;13.804;2024-01-30T22:53:32;2.20;1.00
19033;DHT22;9649;51.042;13.804;2024-01-30T22:59:21;2.20;1.00
19033;DHT22;9649;51.042;13.804;2024-01-30T23:16:12;2.30;1.00
19033;DHT22;9649;51.042;13.804;2024-01-30T23:22:03;2.20;1.00
19033;DHT22;9649;51.042;13.804;2024-01-30T23:27:51;2.20;1.00
19033;DHT22;9649;51.042;13.804;2024-01-30T23:33:31;2.30;1.00
19033;DHT22;9649;51.042;13.804;2024-01-30T23:39:38;2.30;1.00
19033;DHT22;9649;51.042;13.804;2024-01-30T23:45:04;2.40;1.00
19033;DHT22;9649;51.042;13.804;2024-01-30T23:50:33;2.50;1.00
19033;DHT22;9649;51.042;13.804;2024-01-30T23:55:35;2.50;1.00
